Time,TemperatureF,DewpointF,PressureIn,WindDirection,WindDirectionDegrees,WindSpeedMPH,WindSpeedGustMPH,Humidity,HourlyPrecipIn,Conditions,Clouds,dailyrainin,SoftwareType,DateUTC
2013-03-22 00:02:00,47.0,43.0,30.05,ENE,78,0.0,2.0,85,-99.99,,,-99.99,,2013-03-22 07:02:00,
2013-03-22 00:11:00,47.0,43.0,30.05,ENE,78,0.0,2.0,85,-99.99,,,-99.99,,2013-03-22 07:11:00,
2013-03-22 00:21:00,47.0,43.0,30.05,ENE,78,0.0,1.0,85,-99.99,,,-99.99,,2013-03-22 07:21:00,
2013-03-22 00:32:00,47.0,43.0,30.05,ENE,78,1.0,2.0,86,-99.99,,,-99.99,,2013-03-22 07:32:00,
2013-03-22 00:41:00,47.0,43.0,30.05,ENE,78,1.0,2.0,86,-99.99,,,-99.99,,2013-03-22 07:41:00,
2013-03-22 00:52:00,47.0,43.0,30.05,ENE,78,1.0,2.0,86,-99.99,,,-99.99,,2013-03-22 07:52:00,
2013-03-22 01:02:00,47.0,43.0,30.04,ENE,68,1.0,3.0,87,-99.99,,,-99.99,,2013-03-22 08:02:00,
2013-03-22 01:12:00,47.0,43.0,30.04,ENE,68,1.0,3.0,87,-99.99,,,-99.99,,2013-03-22 08:12:00,
2013-03-22 01:22:00,47.0,43.0,30.04,ENE,68,1.0,2.0,87,-99.99,,,-99.99,,2013-03-22 08:22:00,
2013-03-22 01:32:00,47.0,43.0,30.04,SE,137,2.0,5.0,87,-99.99,,,-99.99,,2013-03-22 08:32:00,
2013-03-22 01:41:00,47.0,43.0,30.04,SE,137,2.0,5.0,87,-99.99,,,-99.99,,2013-03-22 08:41:00,
2013-03-22 01:51:00,47.0,44.0,30.04,East,82,0.0,2.0,88,-99.99,,,-99.99,,2013-03-22 08:51:00,
2013-03-22 02:02:00,47.0,44.0,30.04,ENE,65,0.0,6.0,88,-99.99,,,-99.99,,2013-03-22 09:02:00,
2013-03-22 02:11:00,47.0,44.0,30.04,ENE,65,0.0,6.0,88,-99.99,,,-99.99,,2013-03-22 09:11:00,
2013-03-22 02:22:00,47.0,44.0,30.04,NNE,24,2.0,3.0,88,-99.99,,,-99.99,,2013-03-22 09:22:00,
2013-03-22 02:32:00,46.0,43.0,30.04,ENE,61,2.0,6.0,88,-99.99,,,-99.99,,2013-03-22 09:32:00,
2013-03-22 02:42:00,46.0,43.0,30.04,ENE,61,2.0,6.0,88,-99.99,,,-99.99,,2013-03-22 09:42:00,
2013-03-22 02:53:00,46.0,42.0,30.04,NE,54,2.0,5.0,87,-99.99,,,-99.99,,2013-03-22 09:53:00,
2013-03-22 03:03:00,46.0,42.0,30.03,NNE,18,2.0,10.0,87,-99.99,,,-99.99,,2013-03-22 10:03:00,
2013-03-22 03:12:00,46.0,42.0,30.03,NNE,18,2.0,10.0,87,-99.99,,,-99.99,,2013-03-22 10:12:00,
2013-03-22 03:22:00,46.0,42.0,30.03,NE,48,1.0,3.0,86,-99.99,,,-99.99,,2013-03-22 10:22:00,
2013-03-22 03:32:00,46.0,42.0,30.03,East,82,2.0,5.0,86,-99.99,,,-99.99,,2013-03-22 10:32:00,
2013-03-22 03:42:00,46.0,42.0,30.03,East,82,2.0,5.0,86,-99.99,,,-99.99,,2013-03-22 10:42:00,
2013-03-22 03:52:00,45.0,41.0,30.03,ENE,71,2.0,5.0,86,-99.99,,,-99.99,,2013-03-22 10:52:00,
2013-03-22 04:02:00,45.0,41.0,30.02,East,100,0.0,2.0,87,-99.99,,,-99.99,,2013-03-22 11:02:00,
2013-03-22 04:11:00,45.0,41.0,30.02,East,100,0.0,2.0,87,-99.99,,,-99.99,,2013-03-22 11:11:00,
2013-03-22 04:22:00,44.0,40.0,30.02,East,96,2.0,2.0,87,-99.99,,,-99.99,,2013-03-22 11:22:00,
2013-03-22 04:32:00,45.0,42.0,30.02,NE,56,1.0,2.0,88,-99.99,,,-99.99,,2013-03-22 11:32:00,
2013-03-22 04:41:00,45.0,42.0,30.02,NE,56,1.0,2.0,88,-99.99,,,-99.99,,2013-03-22 11:41:00,
2013-03-22 04:52:00,45.0,42.0,30.02,NNE,30,3.0,7.0,89,-99.99,,,-99.99,,2013-03-22 11:52:00,
2013-03-22 05:02:00,45.0,42.0,30.02,ENE,65,2.0,5.0,89,-99.99,,,-99.99,,2013-03-22 12:02:00,
2013-03-22 05:12:00,45.0,42.0,30.02,East,79,2.0,5.0,89,-99.99,,,-99.99,,2013-03-22 12:12:00,
2013-03-22 05:21:00,45.0,42.0,30.02,East,79,2.0,5.0,89,-99.99,,,-99.99,,2013-03-22 12:21:00,
2013-03-22 05:32:00,45.0,42.0,30.02,ESE,104,2.0,5.0,89,-99.99,,,-99.99,,2013-03-22 12:32:00,
2013-03-22 05:41:00,45.0,42.0,30.02,ESE,104,2.0,5.0,89,-99.99,,,-99.99,,2013-03-22 12:41:00,
2013-03-22 05:51:00,45.0,42.0,30.02,NE,56,0.0,5.0,90,-99.99,,,-99.99,,2013-03-22 12:51:00,
2013-03-22 06:02:00,45.0,42.0,30.02,ENE,64,4.0,7.0,90,-99.99,,,-99.99,,2013-03-22 13:02:00,
2013-03-22 06:11:00,45.0,42.0,30.02,ENE,64,4.0,7.0,90,-99.99,,,-99.99,,2013-03-22 13:11:00,
2013-03-22 06:21:00,45.0,42.0,30.02,ENE,64,4.0,7.0,90,-99.99,,,-99.99,,2013-03-22 13:21:00,
2013-03-22 06:32:00,44.0,42.0,30.02,East,82,3.0,6.0,91,-99.99,,,-99.99,,2013-03-22 13:32:00,
2013-03-22 06:41:00,44.0,42.0,30.02,East,82,3.0,6.0,91,-99.99,,,-99.99,,2013-03-22 13:41:00,
2013-03-22 06:52:00,44.0,42.0,30.02,East,82,3.0,6.0,91,-99.99,,,-99.99,,2013-03-22 13:52:00,
2013-03-22 07:02:00,44.0,42.0,30.03,ENE,58,2.0,3.0,91,-99.99,,,-99.99,,2013-03-22 14:02:00,
2013-03-22 07:11:00,44.0,42.0,30.03,ENE,58,2.0,3.0,91,-99.99,,,-99.99,,2013-03-22 14:11:00,
2013-03-22 07:22:00,44.0,42.0,30.03,ENE,58,2.0,3.0,91,-99.99,,,-99.99,,2013-03-22 14:22:00,
2013-03-22 07:32:00,44.0,42.0,30.03,ENE,58,0.0,4.0,91,-99.99,,,-99.99,,2013-03-22 14:32:00,
2013-03-22 07:52:00,44.0,42.0,30.04,North,352,2.0,5.0,91,-99.99,,,-99.99,,2013-03-22 14:52:00,
2013-03-22 08:02:00,44.0,42.0,30.04,NNE,28,4.0,6.0,91,-99.99,,,-99.99,,2013-03-22 15:02:00,
2013-03-22 08:11:00,44.0,42.0,30.04,NNE,28,4.0,6.0,91,-99.99,,,-99.99,,2013-03-22 15:11:00,
2013-03-22 08:21:00,45.0,43.0,30.04,NE,51,5.0,11.0,91,-99.99,,,-99.99,,2013-03-22 15:21:00,
2013-03-22 08:32:00,46.0,43.0,30.05,NE,52,3.0,13.0,90,-99.99,,,-99.99,,2013-03-22 15:32:00,
2013-03-22 08:52:00,46.0,43.0,30.05,NE,42,11.0,12.0,89,-99.99,,,-99.99,,2013-03-22 15:52:00,
2013-03-22 09:02:00,47.0,44.0,30.05,NE,51,7.0,11.0,88,-99.99,,,-99.99,,2013-03-22 16:02:00,
2013-03-22 09:12:00,48.0,44.0,30.05,ENE,73,3.0,10.0,85,-99.99,,,-99.99,,2013-03-22 16:12:00,
2013-03-22 09:22:00,48.0,44.0,30.05,ENE,73,3.0,10.0,85,-99.99,,,-99.99,,2013-03-22 16:22:00,
2013-03-22 09:32:00,50.0,44.0,30.06,ENE,64,2.0,10.0,80,-99.99,,,-99.99,,2013-03-22 16:32:00,
2013-03-22 09:42:00,50.0,44.0,30.06,ENE,64,2.0,10.0,80,-99.99,,,-99.99,,2013-03-22 16:42:00,
2013-03-22 09:52:00,50.0,44.0,30.06,ENE,64,2.0,10.0,80,-99.99,,,-99.99,,2013-03-22 16:52:00,
2013-03-22 10:02:00,51.0,43.0,30.06,ESE,102,5.0,7.0,75,-99.99,,,-99.99,,2013-03-22 17:02:00,
2013-03-22 10:12:00,52.0,45.0,30.06,NNE,25,6.0,7.0,77,-99.99,,,-99.99,,2013-03-22 17:12:00,
2013-03-22 10:22:00,52.0,45.0,30.06,NNE,25,6.0,7.0,77,-99.99,,,-99.99,,2013-03-22 17:22:00,
2013-03-22 10:32:00,54.0,44.0,30.06,NE,55,2.0,8.0,69,-99.99,,,-99.99,,2013-03-22 17:32:00,
2013-03-22 10:41:00,54.0,44.0,30.06,NE,55,2.0,8.0,69,-99.99,,,-99.99,,2013-03-22 17:41:00,
2013-03-22 10:52:00,55.0,44.0,30.06,NE,38,5.0,10.0,66,-99.99,,,-99.99,,2013-03-22 17:52:00,
2013-03-22 11:02:00,55.0,41.0,30.06,NE,45,6.0,10.0,59,-99.99,,,-99.99,,2013-03-22 18:02:00,
2013-03-22 11:11:00,55.0,41.0,30.06,NE,45,6.0,10.0,59,-99.99,,,-99.99,,2013-03-22 18:11:00,
2013-03-22 11:21:00,56.0,42.0,30.07,ENE,58,7.0,8.0,60,-99.99,,,-99.99,,2013-03-22 18:21:00,
2013-03-22 11:32:00,57.0,40.0,30.07,SE,127,3.0,7.0,53,-99.99,,,-99.99,,2013-03-22 18:32:00,
2013-03-22 11:42:00,57.0,40.0,30.07,SE,127,3.0,7.0,53,-99.99,,,-99.99,,2013-03-22 18:42:00,
2013-03-22 11:52:00,58.0,39.0,30.07,ESE,112,1.0,7.0,50,-99.99,,,-99.99,,2013-03-22 18:52:00,
2013-03-22 12:02:00,61.0,38.0,30.07,NE,49,2.0,5.0,42,-99.99,,,-99.99,,2013-03-22 19:02:00,
2013-03-22 12:12:00,61.0,38.0,30.07,NE,49,2.0,5.0,42,-99.99,,,-99.99,,2013-03-22 19:12:00,
2013-03-22 12:21:00,61.0,36.0,30.07,WSW,250,3.0,8.0,40,-99.99,,,-99.99,,2013-03-22 19:21:00,
2013-03-22 12:32:00,63.0,38.0,30.07,SSW,203,1.0,5.0,40,-99.99,,,-99.99,,2013-03-22 19:32:00,
2013-03-22 12:42:00,63.0,38.0,30.07,SSW,203,1.0,5.0,40,-99.99,,,-99.99,,2013-03-22 19:42:00,
2013-03-22 12:51:00,63.0,38.0,30.06,NNE,28,1.0,5.0,40,-99.99,,,-99.99,,2013-03-22 19:51:00,
2013-03-22 13:01:00,66.0,34.0,30.06,WSW,250,2.0,7.0,31,-99.99,,,-99.99,,2013-03-22 20:01:00,
2013-03-22 13:11:00,66.0,34.0,30.06,WSW,250,2.0,7.0,31,-99.99,,,-99.99,,2013-03-22 20:11:00,
2013-03-22 13:22:00,66.0,34.0,30.06,WSW,250,2.0,7.0,31,-99.99,,,-99.99,,2013-03-22 20:22:00,
2013-03-22 13:32:00,64.0,40.0,30.05,WSW,239,6.0,12.0,42,-99.99,,,-99.99,,2013-03-22 20:32:00,
2013-03-22 13:42:00,64.0,40.0,30.05,WSW,239,6.0,12.0,42,-99.99,,,-99.99,,2013-03-22 20:42:00,
2013-03-22 13:52:00,64.0,40.0,30.05,WSW,239,6.0,12.0,42,-99.99,,,-99.99,,2013-03-22 20:52:00,
2013-03-22 14:02:00,64.0,40.0,30.04,SW,216,6.0,12.0,42,-99.99,,,-99.99,,2013-03-22 21:02:00,
2013-03-22 14:11:00,64.0,40.0,30.04,SW,216,6.0,12.0,42,-99.99,,,-99.99,,2013-03-22 21:11:00,
2013-03-22 14:22:00,64.0,40.0,30.04,SW,216,6.0,12.0,42,-99.99,,,-99.99,,2013-03-22 21:22:00,
2013-03-22 14:32:00,63.0,36.0,30.04,SSW,195,11.0,12.0,36,-99.99,,,-99.99,,2013-03-22 21:32:00,
2013-03-22 14:42:00,63.0,36.0,30.04,SSW,195,11.0,12.0,36,-99.99,,,-99.99,,2013-03-22 21:42:00,
2013-03-22 14:53:00,64.0,39.0,30.03,SW,232,7.0,11.0,40,-99.99,,,-99.99,,2013-03-22 21:53:00,
2013-03-22 15:02:00,64.0,37.0,30.03,SSW,208,5.0,10.0,36,-99.99,,,-99.99,,2013-03-22 22:02:00,
2013-03-22 15:12:00,64.0,37.0,30.03,SSW,208,5.0,10.0,36,-99.99,,,-99.99,,2013-03-22 22:12:00,
2013-03-22 15:22:00,65.0,37.0,30.02,SW,229,9.0,10.0,36,-99.99,,,-99.99,,2013-03-22 22:22:00,
2013-03-22 15:32:00,66.0,38.0,30.02,SW,223,10.0,12.0,35,-99.99,,,-99.99,,2013-03-22 22:32:00,
2013-03-22 15:42:00,66.0,38.0,30.02,SW,223,10.0,12.0,35,-99.99,,,-99.99,,2013-03-22 22:42:00,
2013-03-22 15:52:00,66.0,36.0,30.02,South,184,5.0,13.0,33,-99.99,,,-99.99,,2013-03-22 22:52:00,
2013-03-22 16:02:00,68.0,34.0,30.01,NW,312,2.0,7.0,28,-99.99,,,-99.99,,2013-03-22 23:02:00,
2013-03-22 16:11:00,68.0,34.0,30.01,NW,312,2.0,7.0,28,-99.99,,,-99.99,,2013-03-22 23:11:00,
2013-03-22 16:22:00,68.0,34.0,30.01,NW,312,2.0,7.0,28,-99.99,,,-99.99,,2013-03-22 23:22:00,
2013-03-22 16:32:00,71.0,24.0,30.01,WSW,250,0.0,8.0,17,-99.99,,,-99.99,,2013-03-22 23:32:00,
2013-03-22 16:41:00,71.0,24.0,30.01,WSW,250,0.0,8.0,17,-99.99,,,-99.99,,2013-03-22 23:41:00,
2013-03-22 16:52:00,71.0,24.0,30.01,WSW,250,0.0,8.0,17,-99.99,,,-99.99,,2013-03-22 23:52:00,
2013-03-22 17:02:00,70.0,22.0,30.01,WNW,301,1.0,10.0,16,-99.99,,,-99.99,,2013-03-23 00:02:00,
2013-03-22 17:12:00,70.0,22.0,30.01,WNW,301,1.0,10.0,16,-99.99,,,-99.99,,2013-03-23 00:12:00,
2013-03-22 17:22:00,70.0,22.0,30.01,North,349,1.0,3.0,16,-99.99,,,-99.99,,2013-03-23 00:22:00,
2013-03-22 17:32:00,69.0,21.0,30.01,NNE,27,3.0,6.0,16,-99.99,,,-99.99,,2013-03-23 00:32:00,
2013-03-22 17:41:00,70.0,22.0,30.01,NNE,31,1.0,7.0,16,-99.99,,,-99.99,,2013-03-23 00:41:00,
2013-03-22 17:51:00,70.0,22.0,30.01,NNE,31,1.0,7.0,16,-99.99,,,-99.99,,2013-03-23 00:51:00,
2013-03-22 18:03:00,68.0,19.0,30.01,West,268,1.0,3.0,15,-99.99,,,-99.99,,2013-03-23 01:03:00,
2013-03-22 18:31:00,67.0,21.0,30.01,NNE,30,1.0,8.0,17,-99.99,,,-99.99,,2013-03-23 01:31:00,
2013-03-22 19:02:00,61.0,42.0,30.02,East,96,3.0,6.0,50,-99.99,,,-99.99,,2013-03-23 02:02:00,
2013-03-22 19:22:00,59.0,42.0,30.03,ESE,104,6.0,9.0,54,-99.99,,,-99.99,,2013-03-23 02:22:00,
2013-03-22 19:31:00,58.0,42.0,30.02,East,100,2.0,6.0,55,-99.99,,,-99.99,,2013-03-23 02:31:00,
2013-03-22 19:51:00,57.0,42.0,30.03,ENE,65,3.0,5.0,58,-99.99,,,-99.99,,2013-03-23 02:51:00,
2013-03-22 20:02:00,55.0,41.0,30.03,ESE,106,1.0,5.0,60,-99.99,,,-99.99,,2013-03-23 03:02:00,
2013-03-22 20:22:00,55.0,42.0,30.05,ENE,76,0.0,6.0,62,-99.99,,,-99.99,,2013-03-23 03:22:00,
2013-03-22 20:32:00,54.0,42.0,30.05,NNE,20,3.0,3.0,64,-99.99,,,-99.99,,2013-03-23 03:32:00,
2013-03-22 20:52:00,53.0,42.0,30.05,NE,40,2.0,3.0,65,-99.99,,,-99.99,,2013-03-23 03:52:00,
2013-03-22 21:02:00,52.0,41.0,30.05,NE,34,0.0,2.0,66,-99.99,,,-99.99,,2013-03-23 04:02:00,
2013-03-22 21:32:00,51.0,40.0,30.06,North,1,2.0,5.0,67,-99.99,,,-99.99,,2013-03-23 04:32:00,
2013-03-22 21:42:00,51.0,40.0,30.06,North,1,2.0,5.0,67,-99.99,,,-99.99,,2013-03-23 04:42:00,
2013-03-22 21:53:00,51.0,40.0,30.07,NNE,25,0.0,3.0,67,-99.99,,,-99.99,,2013-03-23 04:53:00,
2013-03-22 22:02:00,51.0,40.0,30.07,NNE,28,0.0,2.0,67,-99.99,,,-99.99,,2013-03-23 05:02:00,
2013-03-22 22:11:00,51.0,40.0,30.07,NNE,28,0.0,2.0,67,-99.99,,,-99.99,,2013-03-23 05:11:00,
2013-03-22 22:21:00,50.0,39.0,30.07,SE,128,1.0,1.0,67,-99.99,,,-99.99,,2013-03-23 05:21:00,
2013-03-22 22:32:00,52.0,36.0,30.07,North,349,1.0,5.0,54,-99.99,,,-99.99,,2013-03-23 05:32:00,
2013-03-22 22:42:00,52.0,36.0,30.07,North,349,1.0,5.0,54,-99.99,,,-99.99,,2013-03-23 05:42:00,
2013-03-22 22:52:00,52.0,36.0,30.07,North,349,1.0,5.0,54,-99.99,,,-99.99,,2013-03-23 05:52:00,
2013-03-22 23:02:00,52.0,37.0,30.07,West,261,0.0,2.0,57,-99.99,,,-99.99,,2013-03-23 06:02:00,
2013-03-22 23:11:00,52.0,37.0,30.07,West,261,0.0,2.0,57,-99.99,,,-99.99,,2013-03-23 06:11:00,
2013-03-22 23:22:00,51.0,36.0,30.08,SE,134,0.0,1.0,56,-99.99,,,-99.99,,2013-03-23 06:22:00,
2013-03-22 23:32:00,50.0,35.0,30.08,NNW,336,0.0,5.0,57,-99.99,,,-99.99,,2013-03-23 06:32:00,
2013-03-22 23:42:00,50.0,35.0,30.08,NNW,336,0.0,5.0,57,-99.99,,,-99.99,,2013-03-23 06:42:00,
2013-03-22 23:51:00,49.0,35.0,30.08,NNW,336,0.0,1.0,58,-99.99,,,-99.99,,2013-03-23 06:51:00,